createdAt,value
2017-11-12T00:00:06.218Z,1001.21
2017-11-12T00:01:06.175Z,1001.24
2017-11-12T00:02:06.133Z,1001.14
2017-11-12T00:03:06.094Z,1001.22
2017-11-12T00:04:06.057Z,1001.08
2017-11-12T00:05:06.019Z,1001.21
2017-11-12T00:06:05.979Z,1001.07
2017-11-12T00:07:05.938Z,1001.10
2017-11-12T00:08:05.901Z,1001.04
2017-11-12T00:09:05.862Z,1001.06
2017-11-12T00:10:05.821Z,1001.03
2017-11-12T00:11:05.785Z,1001.02
2017-11-12T00:12:06.175Z,1000.97
2017-11-12T00:13:05.779Z,1000.94
2017-11-12T00:14:05.662Z,1000.98
2017-11-12T00:15:05.635Z,1001.00
2017-11-12T00:16:05.597Z,1000.93
2017-11-12T00:17:05.548Z,1001.00
2017-11-12T00:18:05.509Z,1001.00
2017-11-12T00:19:05.479Z,1000.90
2017-11-12T00:20:05.434Z,1000.84
2017-11-12T00:21:05.806Z,1000.84
2017-11-12T00:22:05.355Z,1000.78
2017-11-12T00:23:05.316Z,1000.74
2017-11-12T00:24:06.113Z,1000.69
2017-11-12T00:25:05.236Z,1000.71
2017-11-12T00:26:05.199Z,1000.74
2017-11-12T00:27:05.160Z,1000.76
2017-11-12T00:28:05.122Z,1000.86
2017-11-12T00:29:05.083Z,1000.74
2017-11-12T00:30:05.051Z,1000.86
2017-11-12T00:31:05.004Z,1000.88
2017-11-12T00:32:04.966Z,1000.88
2017-11-12T00:33:04.928Z,1000.90
2017-11-12T00:34:04.888Z,1000.83
2017-11-12T00:35:04.848Z,1000.78
2017-11-12T00:36:04.812Z,1000.89
2017-11-12T00:37:04.772Z,1000.90
2017-11-12T00:38:04.732Z,1000.93
2017-11-12T00:39:04.694Z,1000.89
2017-11-12T00:40:04.655Z,1000.91
2017-11-12T00:41:04.616Z,1000.97
2017-11-12T00:42:04.578Z,1000.92
2017-11-12T00:43:04.537Z,1000.89
2017-11-12T00:44:04.499Z,1000.88
2017-11-12T00:45:04.461Z,1000.90
2017-11-12T00:46:04.420Z,1000.89
2017-11-12T00:47:04.382Z,1000.92
2017-11-12T00:48:04.343Z,1000.91
2017-11-12T00:49:04.305Z,1000.93
2017-11-12T00:50:04.267Z,1000.84
2017-11-12T00:51:04.734Z,1000.98
2017-11-12T00:52:04.189Z,1000.88
2017-11-12T00:53:04.150Z,1000.91
2017-11-12T00:54:04.110Z,1000.96
2017-11-12T00:55:04.070Z,1000.97
2017-11-12T00:56:04.031Z,1000.94
2017-11-12T00:57:03.994Z,1000.91
2017-11-12T00:58:03.962Z,1000.93
2017-11-12T00:59:03.915Z,1000.88
2017-11-12T01:00:03.877Z,1000.89
2017-11-12T01:01:03.843Z,1000.83
2017-11-12T01:02:03.799Z,1000.79
2017-11-12T01:03:03.760Z,1000.78
2017-11-12T01:04:03.727Z,1000.72
2017-11-12T01:05:03.678Z,1000.73
2017-11-12T01:06:03.643Z,1000.67
2017-11-12T01:07:03.611Z,1000.68
2017-11-12T01:08:03.567Z,1000.66
2017-11-12T01:09:03.527Z,1000.62
2017-11-12T01:10:03.489Z,1000.57
2017-11-12T01:11:03.450Z,1000.53
2017-11-12T01:12:03.411Z,1000.50
2017-11-12T01:13:03.372Z,1000.64
2017-11-12T01:14:03.329Z,1000.59
2017-11-12T01:15:03.293Z,1000.64
2017-11-12T01:16:03.266Z,1000.57
2017-11-12T01:17:03.215Z,1000.57
2017-11-12T01:18:03.179Z,1000.56
2017-11-12T01:19:03.147Z,1000.59
2017-11-12T01:20:03.097Z,1000.56
2017-11-12T01:21:03.059Z,1000.52
2017-11-12T01:22:03.020Z,1000.46
2017-11-12T01:23:02.982Z,1000.50
2017-11-12T01:24:02.942Z,1000.47
2017-11-12T01:25:02.906Z,1000.50
2017-11-12T01:26:02.863Z,1000.51
2017-11-12T01:27:02.825Z,1000.47
2017-11-12T01:28:02.790Z,1000.48
2017-11-12T01:29:02.747Z,1000.50
2017-11-12T01:30:02.709Z,1000.50
2017-11-12T01:31:02.670Z,1000.55
2017-11-12T01:32:02.632Z,1000.53
2017-11-12T01:33:02.593Z,1000.58
2017-11-12T01:34:02.553Z,1000.56
2017-11-12T01:35:02.513Z,1000.52
2017-11-12T01:36:02.476Z,1000.53
2017-11-12T01:37:02.435Z,1000.56
2017-11-12T01:38:02.396Z,1000.54
2017-11-12T01:39:02.359Z,1000.53
2017-11-12T01:40:02.320Z,1000.55
2017-11-12T01:41:02.280Z,1000.61
2017-11-12T01:42:02.240Z,1000.58
2017-11-12T01:43:02.202Z,1000.57
2017-11-12T01:44:02.168Z,1000.59
2017-11-12T01:45:02.123Z,1000.57
2017-11-12T01:46:02.085Z,1000.48
2017-11-12T01:47:02.051Z,1000.56
2017-11-12T01:48:02.008Z,1000.49
2017-11-12T01:49:01.970Z,1000.42
2017-11-12T01:50:01.928Z,1000.45
2017-11-12T01:51:01.890Z,1000.42
2017-11-12T01:52:01.851Z,1000.33
2017-11-12T01:53:01.814Z,1000.33
2017-11-12T01:54:01.774Z,1000.31
2017-11-12T01:55:01.736Z,1000.29
2017-11-12T01:56:01.696Z,1000.29
2017-11-12T01:57:01.657Z,1000.30
2017-11-12T01:58:01.617Z,1000.18
2017-11-12T01:59:01.578Z,1000.15
2017-11-12T02:00:01.538Z,1000.05
2017-11-12T02:01:01.500Z,1000.10
2017-11-12T02:02:01.460Z,1000.07
2017-11-12T02:03:01.423Z,1000.09
2017-11-12T02:04:01.383Z,1000.04
2017-11-12T02:05:01.345Z,1000.05
2017-11-12T02:06:01.305Z,1000.07
2017-11-12T02:07:01.266Z,1000.08
2017-11-12T02:08:01.227Z,1000.08
2017-11-12T02:09:01.189Z,1000.02
2017-11-12T02:10:01.149Z,1000.12
2017-11-12T02:11:01.108Z,1000.03
2017-11-12T02:12:01.069Z,1000.01
2017-11-12T02:13:01.031Z,999.98
2017-11-12T02:14:01.000Z,999.93
2017-11-12T02:15:00.954Z,999.90
2017-11-12T02:16:00.914Z,999.87
2017-11-12T02:17:00.876Z,999.84
2017-11-12T02:18:00.834Z,999.80
2017-11-12T02:19:00.797Z,999.84
2017-11-12T02:20:00.757Z,999.81
2017-11-12T02:21:00.721Z,999.83
2017-11-12T02:22:00.679Z,999.86
2017-11-12T02:23:00.642Z,999.84
2017-11-12T02:24:00.601Z,999.86
2017-11-12T02:25:00.564Z,999.89
2017-11-12T02:26:00.523Z,999.81
2017-11-12T02:27:00.485Z,999.84
2017-11-12T02:28:00.444Z,999.81
2017-11-12T02:29:00.407Z,999.85
2017-11-12T02:30:00.367Z,999.91
2017-11-12T02:31:00.325Z,999.95
2017-11-12T02:32:00.292Z,999.92
2017-11-12T02:33:00.250Z,999.83
2017-11-12T02:34:00.214Z,999.82
2017-11-12T02:35:00.176Z,999.82
2017-11-12T02:36:00.131Z,999.81
2017-11-12T02:37:00.095Z,999.68
2017-11-12T02:38:00.054Z,999.68
2017-11-12T02:39:00.022Z,999.59
2017-11-12T02:39:59.973Z,999.44
2017-11-12T02:40:59.937Z,999.53
2017-11-12T02:41:59.897Z,999.48
2017-11-12T02:42:59.858Z,999.54
2017-11-12T02:43:59.819Z,999.58
2017-11-12T02:44:59.775Z,999.58
2017-11-12T02:45:59.741Z,999.58
2017-11-12T02:46:59.706Z,999.54
2017-11-12T02:47:59.662Z,999.58
2017-11-12T02:48:59.621Z,999.52
2017-11-12T02:49:59.582Z,999.54
2017-11-12T02:50:59.550Z,999.54
2017-11-12T02:51:59.503Z,999.62
2017-11-12T02:52:59.465Z,999.62
2017-11-12T02:53:59.457Z,999.65
2017-11-12T02:54:59.386Z,999.62
2017-11-12T02:55:59.349Z,999.60
2017-11-12T02:56:59.308Z,999.53
2017-11-12T02:57:59.268Z,999.55
2017-11-12T02:58:59.229Z,999.55
2017-11-12T02:59:59.189Z,999.48
2017-11-12T03:00:59.150Z,999.56
2017-11-12T03:01:59.111Z,999.51
2017-11-12T03:02:59.071Z,999.55
2017-11-12T03:03:59.032Z,999.48
2017-11-12T03:04:59.025Z,999.53
2017-11-12T03:05:58.953Z,999.54
2017-11-12T03:06:58.914Z,999.55
2017-11-12T03:07:58.874Z,999.50
2017-11-12T03:08:58.842Z,999.54
2017-11-12T03:09:58.796Z,999.46
2017-11-12T03:10:58.774Z,999.44
2017-11-12T03:11:58.717Z,999.44
2017-11-12T03:12:58.677Z,999.39
2017-11-12T03:13:58.637Z,999.34
2017-11-12T03:14:58.599Z,999.31
2017-11-12T03:15:58.558Z,999.32
2017-11-12T03:16:58.526Z,999.30
2017-11-12T03:17:58.478Z,999.35
2017-11-12T03:18:58.439Z,999.23
2017-11-12T03:19:58.401Z,999.22
2017-11-12T03:20:58.374Z,999.21
2017-11-12T03:21:58.322Z,999.19
2017-11-12T03:22:58.281Z,999.09
2017-11-12T03:23:58.245Z,999.15
2017-11-12T03:24:58.205Z,999.15
2017-11-12T03:25:58.165Z,999.14
2017-11-12T03:26:58.125Z,999.12
2017-11-12T03:27:58.087Z,999.19
2017-11-12T03:28:58.047Z,999.14
2017-11-12T03:29:58.009Z,999.11
2017-11-12T03:30:57.970Z,999.16
2017-11-12T03:31:57.929Z,999.22
2017-11-12T03:32:57.890Z,999.26
2017-11-12T03:33:57.851Z,999.18
2017-11-12T03:34:57.811Z,999.35
2017-11-12T03:35:57.772Z,999.29
2017-11-12T03:36:57.733Z,999.27
2017-11-12T03:37:57.695Z,999.42
2017-11-12T03:38:57.665Z,999.39
2017-11-12T03:39:57.615Z,999.27
2017-11-12T03:40:57.577Z,999.24
2017-11-12T03:41:57.537Z,999.23
2017-11-12T03:42:57.502Z,999.20
2017-11-12T03:43:57.457Z,999.16
2017-11-12T03:44:57.420Z,999.12
2017-11-12T03:45:57.377Z,999.00
2017-11-12T03:46:57.344Z,999.01
2017-11-12T03:47:57.301Z,999.03
2017-11-12T03:48:57.262Z,998.99
2017-11-12T03:49:57.224Z,998.95
2017-11-12T03:50:57.182Z,998.97
2017-11-12T03:51:57.144Z,998.99
2017-11-12T03:52:57.110Z,999.00
2017-11-12T03:53:57.064Z,999.02
2017-11-12T03:54:57.025Z,999.04
2017-11-12T03:55:56.987Z,999.07
2017-11-12T03:56:56.947Z,999.04
2017-11-12T03:57:56.913Z,999.05
2017-11-12T03:58:56.871Z,998.98
2017-11-12T03:59:56.830Z,998.94
2017-11-12T04:00:56.793Z,998.96
2017-11-12T04:01:56.751Z,998.90
2017-11-12T04:02:56.712Z,998.92
2017-11-12T04:03:56.672Z,998.94
2017-11-12T04:04:56.634Z,998.96
2017-11-12T04:05:56.593Z,998.98
2017-11-12T04:06:56.559Z,999.01
2017-11-12T04:07:56.523Z,998.99
2017-11-12T04:08:56.477Z,998.93
2017-11-12T04:09:56.437Z,998.90
2017-11-12T04:10:56.397Z,998.86
2017-11-12T04:11:56.366Z,998.90
2017-11-12T04:12:56.321Z,998.88
2017-11-12T04:13:56.279Z,998.88
2017-11-12T04:14:56.252Z,998.83
2017-11-12T04:15:56.201Z,998.84
2017-11-12T04:16:56.162Z,998.77
2017-11-12T04:17:56.122Z,998.75
2017-11-12T04:18:56.082Z,998.73
2017-11-12T04:19:56.045Z,998.75
2017-11-12T04:20:56.006Z,998.80
2017-11-12T04:21:55.966Z,998.73
2017-11-12T04:22:55.926Z,998.72
2017-11-12T04:23:55.895Z,998.63
2017-11-12T04:24:55.850Z,998.64
2017-11-12T04:25:55.810Z,998.62
2017-11-12T04:26:55.771Z,998.56
2017-11-12T04:27:55.733Z,998.56
2017-11-12T04:28:55.693Z,998.55
2017-11-12T04:29:55.652Z,998.50
2017-11-12T04:30:55.615Z,998.48
2017-11-12T04:31:55.575Z,998.45
2017-11-12T04:32:55.538Z,998.44
2017-11-12T04:33:55.500Z,998.50
2017-11-12T04:34:55.458Z,998.39
2017-11-12T04:35:55.419Z,998.42
2017-11-12T04:36:55.380Z,998.43
2017-11-12T04:37:55.340Z,998.37
2017-11-12T04:38:55.301Z,998.26
2017-11-12T04:39:55.262Z,998.26
2017-11-12T04:40:55.225Z,998.28
2017-11-12T04:41:55.185Z,998.24
2017-11-12T04:42:55.145Z,998.23
2017-11-12T04:43:55.107Z,998.25
2017-11-12T04:44:55.067Z,998.18
2017-11-12T04:45:55.043Z,998.15
2017-11-12T04:46:54.989Z,998.16
2017-11-12T04:47:54.952Z,998.16
2017-11-12T04:48:54.911Z,998.18
2017-11-12T04:49:54.871Z,998.21
2017-11-12T04:50:54.833Z,998.27
2017-11-12T04:51:54.793Z,998.23
2017-11-12T04:52:54.754Z,998.25
2017-11-12T04:53:54.715Z,998.23
2017-11-12T04:54:54.677Z,998.21
2017-11-12T04:55:54.637Z,998.19
2017-11-12T04:56:54.598Z,998.18
2017-11-12T04:57:54.559Z,998.15
2017-11-12T04:58:54.520Z,998.14
2017-11-12T04:59:54.483Z,998.09
2017-11-12T05:00:54.443Z,998.13
2017-11-12T05:01:54.404Z,997.98
2017-11-12T05:02:54.365Z,998.05
2017-11-12T05:03:54.327Z,997.90
2017-11-12T05:04:54.286Z,997.88
2017-11-12T05:05:54.247Z,997.89
2017-11-12T05:06:54.207Z,997.84
2017-11-12T05:07:54.170Z,997.88
2017-11-12T05:08:54.131Z,997.89
2017-11-12T05:09:54.099Z,997.81
2017-11-12T05:10:54.060Z,997.87
2017-11-12T05:11:54.027Z,997.80
2017-11-12T05:12:53.983Z,997.79
2017-11-12T05:13:53.936Z,997.85
2017-11-12T05:14:53.897Z,997.86
2017-11-12T05:15:53.861Z,997.77
2017-11-12T05:16:53.820Z,997.75
2017-11-12T05:17:53.781Z,997.68
2017-11-12T05:18:53.752Z,997.62
2017-11-12T05:19:53.702Z,997.69
2017-11-12T05:20:53.663Z,997.66
2017-11-12T05:21:53.625Z,997.59
2017-11-12T05:22:53.584Z,997.58
2017-11-12T05:23:53.549Z,997.54
2017-11-12T05:24:53.949Z,997.47
2017-11-12T05:25:53.469Z,997.41
2017-11-12T05:26:53.431Z,997.35
2017-11-12T05:27:53.389Z,997.42
2017-11-12T05:28:53.353Z,997.36
2017-11-12T05:29:53.324Z,997.40
2017-11-12T05:30:53.274Z,997.33
2017-11-12T05:31:53.236Z,997.36
2017-11-12T05:32:53.195Z,997.29
2017-11-12T05:33:53.360Z,997.35
2017-11-12T05:34:53.117Z,997.34
2017-11-12T05:35:53.079Z,997.27
2017-11-12T05:36:53.039Z,997.26
2017-11-12T05:37:52.999Z,997.20
2017-11-12T05:38:52.959Z,997.26
2017-11-12T05:39:52.919Z,997.19
2017-11-12T05:40:52.880Z,997.22
2017-11-12T05:41:52.848Z,997.09
2017-11-12T05:42:52.801Z,997.15
2017-11-12T05:43:52.769Z,997.12
2017-11-12T05:44:52.722Z,997.14
2017-11-12T05:45:52.682Z,997.12
2017-11-12T05:46:52.659Z,997.14
2017-11-12T05:47:52.604Z,997.13
2017-11-12T05:48:52.565Z,997.10
2017-11-12T05:49:52.524Z,997.10
2017-11-12T05:50:52.486Z,997.13
2017-11-12T05:51:52.445Z,997.07
2017-11-12T05:52:52.407Z,997.07
2017-11-12T05:53:52.368Z,997.03
2017-11-12T05:54:52.343Z,997.00
2017-11-12T05:55:52.290Z,996.95
2017-11-12T05:56:52.249Z,996.83
2017-11-12T05:57:52.207Z,996.85
2017-11-12T05:58:52.169Z,996.86
2017-11-12T05:59:52.129Z,996.81
2017-11-12T06:00:52.091Z,996.83
2017-11-12T06:03:24.135Z,996.76
2017-11-12T06:04:24.045Z,996.68
2017-11-12T06:05:24.004Z,996.67
2017-11-12T06:06:23.965Z,996.51
2017-11-12T06:07:23.925Z,996.50
2017-11-12T06:08:23.884Z,996.48
2017-11-12T06:09:23.846Z,996.53
2017-11-12T06:10:23.804Z,996.57
2017-11-12T06:11:23.765Z,996.54
2017-11-12T06:12:23.726Z,996.48
2017-11-12T06:13:23.687Z,996.44
2017-11-12T06:14:23.647Z,996.51
2017-11-12T06:15:23.606Z,996.38
2017-11-12T06:16:23.564Z,996.45
2017-11-12T06:17:23.527Z,996.41
2017-11-12T06:18:23.489Z,996.44
2017-11-12T06:19:23.450Z,996.43
2017-11-12T06:20:23.408Z,996.44
2017-11-12T06:21:23.370Z,996.41
2017-11-12T06:22:23.330Z,996.31
2017-11-12T06:23:23.286Z,996.35
2017-11-12T06:24:23.250Z,996.29
2017-11-12T06:25:23.210Z,996.26
2017-11-12T06:26:23.171Z,996.18
2017-11-12T06:27:23.132Z,996.22
2017-11-12T06:28:23.091Z,996.28
2017-11-12T06:29:23.051Z,996.24
2017-11-12T06:30:23.014Z,996.14
2017-11-12T06:31:22.974Z,996.19
2017-11-12T06:32:22.939Z,996.14
2017-11-12T06:33:22.893Z,996.06
2017-11-12T06:34:22.961Z,996.04
2017-11-12T06:35:22.814Z,996.07
2017-11-12T06:36:22.775Z,996.07
2017-11-12T06:37:22.736Z,996.00
2017-11-12T06:38:22.696Z,996.00
2017-11-12T06:39:22.658Z,995.98
2017-11-12T06:40:22.616Z,995.95
2017-11-12T06:41:22.577Z,995.94
2017-11-12T06:42:22.538Z,995.97
2017-11-12T06:43:22.498Z,995.95
2017-11-12T06:44:22.458Z,995.91
2017-11-12T06:45:22.420Z,995.91
2017-11-12T06:46:22.379Z,995.87
2017-11-12T06:47:22.339Z,995.82
2017-11-12T06:48:22.299Z,995.85
2017-11-12T06:49:22.259Z,995.85
2017-11-12T06:50:22.220Z,995.82
2017-11-12T06:51:22.187Z,995.82
2017-11-12T06:52:22.141Z,995.74
2017-11-12T06:53:22.103Z,995.64
2017-11-12T06:54:22.064Z,995.55
2017-11-12T06:55:22.207Z,995.48
2017-11-12T06:56:21.982Z,995.54
2017-11-12T06:57:21.943Z,995.47
2017-11-12T06:58:21.902Z,995.34
2017-11-12T06:59:21.864Z,995.43
2017-11-12T07:00:21.947Z,995.34
2017-11-12T07:01:21.783Z,995.29
2017-11-12T07:02:21.745Z,995.34
2017-11-12T07:03:21.706Z,995.31
2017-11-12T07:04:21.665Z,995.20
2017-11-12T07:05:21.624Z,995.27
2017-11-12T07:06:21.585Z,995.22
2017-11-12T07:07:21.553Z,995.18
2017-11-12T07:08:21.506Z,995.14
2017-11-12T07:09:21.466Z,995.10
2017-11-12T07:10:21.427Z,995.11
2017-11-12T07:11:21.386Z,995.03
2017-11-12T07:12:21.345Z,995.08
2017-11-12T07:13:21.306Z,995.05
2017-11-12T07:14:21.266Z,995.05
2017-11-12T07:15:21.227Z,994.99
2017-11-12T07:16:21.188Z,995.00
2017-11-12T07:17:21.146Z,994.98
2017-11-12T07:18:21.108Z,994.95
2017-11-12T07:19:21.068Z,994.95
2017-11-12T07:20:21.026Z,994.88
2017-11-12T07:21:20.989Z,994.92
2017-11-12T07:22:20.950Z,994.91
2017-11-12T07:23:20.915Z,994.90
2017-11-12T07:24:20.875Z,994.93
2017-11-12T07:25:20.829Z,994.94
2017-11-12T07:26:20.789Z,994.87
2017-11-12T07:27:20.752Z,994.98
2017-11-12T07:28:20.709Z,994.94
2017-11-12T07:29:20.670Z,994.95
2017-11-12T07:30:20.627Z,994.95
2017-11-12T07:31:20.589Z,994.96
2017-11-12T07:32:20.555Z,994.92
2017-11-12T07:33:20.509Z,995.00
2017-11-12T07:34:20.475Z,995.03
2017-11-12T07:35:20.430Z,995.05
2017-11-12T07:36:20.389Z,995.04
2017-11-12T07:37:20.350Z,995.07
2017-11-12T07:38:20.310Z,995.08
2017-11-12T07:39:20.271Z,995.07
2017-11-12T07:40:20.230Z,995.03
2017-11-12T07:41:20.190Z,994.99
2017-11-12T07:42:20.203Z,995.00
2017-11-12T07:43:20.109Z,995.10
2017-11-12T07:44:20.072Z,995.11
2017-11-12T07:45:20.349Z,995.09
2017-11-12T07:46:19.993Z,995.14
2017-11-12T07:47:19.958Z,995.09
2017-11-12T07:48:19.918Z,995.06
2017-11-12T07:49:19.873Z,995.11
2017-11-12T07:50:19.835Z,995.15
2017-11-12T07:51:19.805Z,995.15
2017-11-12T07:52:19.756Z,995.12
2017-11-12T07:53:19.715Z,995.16
2017-11-12T07:54:19.675Z,995.07
2017-11-12T07:55:19.637Z,995.10
2017-11-12T07:56:19.596Z,995.07
2017-11-12T07:57:19.554Z,995.05
2017-11-12T07:58:19.517Z,995.06
2017-11-12T07:59:19.481Z,995.02
2017-11-12T08:00:19.437Z,995.09
2017-11-12T08:01:19.399Z,995.01
2017-11-12T08:02:19.360Z,995.04
2017-11-12T08:03:19.319Z,995.07
2017-11-12T08:04:19.279Z,995.03
2017-11-12T08:05:19.242Z,995.03
2017-11-12T08:06:19.201Z,995.05
2017-11-12T08:07:19.161Z,994.97
2017-11-12T08:08:19.129Z,994.97
2017-11-12T08:09:19.083Z,994.93
2017-11-12T08:10:19.044Z,994.87
2017-11-12T08:11:19.006Z,994.98
2017-11-12T08:12:18.961Z,994.99
2017-11-12T08:13:18.925Z,994.97
2017-11-12T08:14:18.887Z,994.97
2017-11-12T08:15:18.848Z,994.91
2017-11-12T08:16:18.806Z,994.97
2017-11-12T08:17:18.833Z,995.01
2017-11-12T08:18:18.727Z,995.02
2017-11-12T08:19:18.688Z,995.02
2017-11-12T08:20:18.644Z,994.92
2017-11-12T08:21:18.610Z,994.94
2017-11-12T08:22:18.571Z,995.03
2017-11-12T08:23:18.659Z,994.97
2017-11-12T08:24:18.492Z,994.97
2017-11-12T08:25:18.454Z,994.85
2017-11-12T08:26:18.414Z,994.84
2017-11-12T08:27:18.376Z,994.88
2017-11-12T08:28:18.336Z,994.72
2017-11-12T08:29:18.296Z,994.85
2017-11-12T08:30:18.258Z,994.85
2017-11-12T08:31:18.218Z,994.88
2017-11-12T08:32:18.178Z,994.83
2017-11-12T08:33:18.142Z,994.79
2017-11-12T08:34:18.099Z,994.79
2017-11-12T08:35:18.276Z,994.81
2017-11-12T08:36:18.018Z,994.82
2017-11-12T08:37:18.274Z,994.86
2017-11-12T08:38:17.943Z,994.86
2017-11-12T08:39:17.907Z,994.85
2017-11-12T08:40:17.976Z,994.82
2017-11-12T08:41:17.826Z,994.88
2017-11-12T08:42:17.785Z,994.86
2017-11-12T08:43:17.748Z,994.82
2017-11-12T08:44:17.709Z,994.78
2017-11-12T08:45:17.763Z,994.82
2017-11-12T08:46:17.820Z,994.82
2017-11-12T08:47:17.695Z,994.84
2017-11-12T08:48:17.600Z,994.85
2017-11-12T08:49:17.600Z,994.89
2017-11-12T08:50:17.594Z,994.90
2017-11-12T08:51:17.435Z,994.83
2017-11-12T08:52:17.394Z,994.71
2017-11-12T08:53:17.357Z,994.72
2017-11-12T08:54:17.315Z,994.72
2017-11-12T08:55:17.281Z,994.61
2017-11-12T08:56:17.240Z,994.61
2017-11-12T08:57:17.198Z,994.58
2017-11-12T08:58:17.162Z,994.55
2017-11-12T08:59:17.120Z,994.52
2017-11-12T09:00:17.080Z,994.49
2017-11-12T09:01:17.042Z,994.48
2017-11-12T09:02:17.003Z,994.47
2017-11-12T09:03:16.971Z,994.46
2017-11-12T09:04:16.923Z,994.39
2017-11-12T09:05:16.884Z,994.43
2017-11-12T09:06:16.845Z,994.39
2017-11-12T09:07:16.806Z,994.29
2017-11-12T09:08:16.765Z,994.31
2017-11-12T09:09:16.726Z,994.30
2017-11-12T09:10:16.687Z,994.29
2017-11-12T09:11:16.649Z,994.32
2017-11-12T09:12:16.612Z,994.31
2017-11-12T09:13:16.566Z,994.25
2017-11-12T09:14:16.528Z,994.19
2017-11-12T09:15:16.488Z,994.10
2017-11-12T09:16:16.451Z,994.15
2017-11-12T09:17:16.409Z,994.14
2017-11-12T09:18:16.372Z,994.13
2017-11-12T09:19:16.333Z,994.15
2017-11-12T09:20:16.289Z,994.16
2017-11-12T09:21:16.252Z,994.07
2017-11-12T09:22:16.212Z,994.06
2017-11-12T09:23:16.172Z,994.09
2017-11-12T09:24:16.134Z,994.07
2017-11-12T09:25:16.097Z,994.10
2017-11-12T09:26:16.054Z,994.10
2017-11-12T09:27:16.380Z,994.05
2017-11-12T09:28:15.975Z,994.05
2017-11-12T09:29:15.936Z,994.07
2017-11-12T09:30:15.897Z,994.04
2017-11-12T09:31:15.855Z,993.99
2017-11-12T09:32:15.815Z,994.00
2017-11-12T09:33:15.780Z,993.93
2017-11-12T09:34:15.737Z,993.90
2017-11-12T09:35:15.697Z,993.86
2017-11-12T09:36:15.660Z,993.69
2017-11-12T09:37:15.617Z,993.75
2017-11-12T09:38:15.578Z,993.71
2017-11-12T09:39:15.536Z,993.74
2017-11-12T09:40:15.501Z,993.70
2017-11-12T09:41:15.460Z,993.71
2017-11-12T09:42:15.421Z,993.66
2017-11-12T09:43:15.382Z,993.63
2017-11-12T09:44:15.340Z,993.62
2017-11-12T09:45:15.301Z,993.62
2017-11-12T09:46:15.263Z,993.58
2017-11-12T09:47:15.223Z,993.56
2017-11-12T09:48:15.185Z,993.57
2017-11-12T09:49:15.143Z,993.60
2017-11-12T09:50:15.104Z,993.63
2017-11-12T09:51:15.067Z,993.64
2017-11-12T09:52:15.055Z,993.63
2017-11-12T09:53:14.987Z,993.55
2017-11-12T09:54:14.950Z,993.61
2017-11-12T09:55:14.908Z,993.66
2017-11-12T09:56:14.869Z,993.66
2017-11-12T09:57:15.675Z,993.65
2017-11-12T09:58:14.803Z,993.65
2017-11-12T09:59:14.756Z,993.57
2017-11-12T10:00:14.712Z,993.46
2017-11-12T10:01:14.672Z,993.46
2017-11-12T10:02:14.686Z,993.40
2017-11-12T10:03:14.592Z,993.23
2017-11-12T10:04:14.726Z,993.28
2017-11-12T10:05:14.516Z,993.23
2017-11-12T10:06:14.725Z,993.18
2017-11-12T10:07:14.441Z,993.23
2017-11-12T10:08:14.402Z,993.22
2017-11-12T10:09:14.365Z,993.12
2017-11-12T10:10:14.325Z,993.07
2017-11-12T10:11:14.287Z,993.02
2017-11-12T10:12:14.250Z,992.94
2017-11-12T10:13:14.209Z,992.90
2017-11-12T10:14:14.173Z,992.85
2017-11-12T10:15:14.153Z,992.74
2017-11-12T10:16:14.092Z,992.75
2017-11-12T10:17:14.058Z,992.72
2017-11-12T10:18:14.020Z,992.76
2017-11-12T10:19:14.041Z,992.73
2017-11-12T10:20:13.945Z,992.73
2017-11-12T10:21:13.905Z,992.69
2017-11-12T10:22:13.868Z,992.66
2017-11-12T10:23:13.830Z,992.60
2017-11-12T10:24:13.793Z,992.60
2017-11-12T10:25:13.753Z,992.64
2017-11-12T10:26:13.716Z,992.72
2017-11-12T10:27:13.677Z,992.81
2017-11-12T10:28:13.639Z,992.82
2017-11-12T10:29:13.608Z,992.86
2017-11-12T10:30:13.562Z,992.89
2017-11-12T10:31:13.524Z,992.95
2017-11-12T10:32:13.484Z,993.06
2017-11-12T10:33:13.445Z,993.04
2017-11-12T10:34:13.406Z,993.06
2017-11-12T10:35:13.372Z,992.98
2017-11-12T10:36:13.334Z,992.95
2017-11-12T10:37:13.291Z,992.97
2017-11-12T10:38:13.254Z,992.90
2017-11-12T10:39:13.218Z,992.87
2017-11-12T10:40:13.177Z,992.89
2017-11-12T10:41:13.137Z,992.81
2017-11-12T10:42:13.097Z,992.90
2017-11-12T10:43:13.061Z,992.75
2017-11-12T10:44:13.020Z,992.67
2017-11-12T10:45:12.980Z,992.54
2017-11-12T10:46:12.943Z,992.43
2017-11-12T10:47:12.998Z,992.51
2017-11-12T10:48:12.862Z,992.50
2017-11-12T10:49:12.825Z,992.50
2017-11-12T10:50:12.788Z,992.52
2017-11-12T10:51:12.769Z,992.61
2017-11-12T10:52:12.707Z,992.59
2017-11-12T10:53:12.677Z,992.66
2017-11-12T10:54:12.632Z,992.64
2017-11-12T10:55:12.591Z,992.69
2017-11-12T10:56:12.553Z,992.66
2017-11-12T10:57:12.511Z,992.77
2017-11-12T10:58:12.473Z,992.80
2017-11-12T10:59:12.435Z,992.87
2017-11-12T11:00:12.397Z,992.82
2017-11-12T11:01:12.357Z,992.89
2017-11-12T11:02:12.319Z,992.82
2017-11-12T11:03:12.293Z,992.75
2017-11-12T11:04:12.237Z,992.73
2017-11-12T11:05:12.231Z,992.69
2017-11-12T11:06:12.868Z,992.67
2017-11-12T11:07:12.131Z,992.61
2017-11-12T11:08:12.082Z,992.67
2017-11-12T11:09:12.045Z,992.59
2017-11-12T11:10:12.005Z,992.57
2017-11-12T11:11:11.972Z,992.61
2017-11-12T11:12:11.930Z,992.59
2017-11-12T11:13:11.889Z,992.51
2017-11-12T11:14:11.850Z,992.43
2017-11-12T11:15:11.833Z,992.43
2017-11-12T11:16:11.772Z,992.39
2017-11-12T11:17:11.734Z,992.38
2017-11-12T11:18:11.695Z,992.43
2017-11-12T11:19:11.655Z,992.30
2017-11-12T11:20:11.617Z,992.21
2017-11-12T11:21:11.578Z,992.34
2017-11-12T11:22:11.535Z,992.30
2017-11-12T11:23:11.502Z,992.25
2017-11-12T11:24:11.461Z,992.35
2017-11-12T11:25:11.423Z,992.33
2017-11-12T11:26:11.387Z,992.30
2017-11-12T11:27:11.346Z,992.32
2017-11-12T11:28:11.307Z,992.29
2017-11-12T11:29:11.269Z,992.20
2017-11-12T11:30:11.232Z,992.16
2017-11-12T11:31:11.190Z,992.13
2017-11-12T11:32:11.152Z,992.07
2017-11-12T11:33:11.113Z,992.08
2017-11-12T11:34:11.076Z,992.05
2017-11-12T11:35:11.036Z,992.04
2017-11-12T11:36:10.996Z,992.05
2017-11-12T11:37:10.956Z,992.22
2017-11-12T11:38:10.919Z,992.24
2017-11-12T11:39:10.878Z,992.31
2017-11-12T11:40:10.840Z,992.32
2017-11-12T11:41:10.801Z,992.37
2017-11-12T11:42:10.764Z,992.32
2017-11-12T11:43:10.723Z,992.38
2017-11-12T11:44:10.683Z,992.25
2017-11-12T11:45:10.644Z,992.26
2017-11-12T11:46:10.607Z,992.25
2017-11-12T11:47:10.569Z,992.13
2017-11-12T11:48:10.529Z,992.18
2017-11-12T11:49:10.491Z,992.20
2017-11-12T11:50:10.451Z,992.25
2017-11-12T11:51:10.414Z,992.19
2017-11-12T11:52:10.373Z,992.24
2017-11-12T11:53:10.339Z,992.20
2017-11-12T11:54:10.294Z,992.21
2017-11-12T11:55:10.256Z,992.25
2017-11-12T11:56:10.219Z,992.24
2017-11-12T11:57:10.180Z,992.30
2017-11-12T11:58:10.143Z,992.32
2017-11-12T11:59:10.105Z,992.33
2017-11-12T12:00:10.064Z,992.31
2017-11-12T12:01:10.026Z,992.28
2017-11-12T12:02:09.988Z,992.26
2017-11-12T12:03:09.950Z,992.28
2017-11-12T12:04:09.910Z,992.27
2017-11-12T12:05:09.873Z,992.24
2017-11-12T12:06:09.835Z,992.19
2017-11-12T12:07:09.797Z,992.24
2017-11-12T12:08:09.757Z,992.24
2017-11-12T12:09:09.726Z,992.25
2017-11-12T12:10:09.683Z,992.28
2017-11-12T12:11:09.643Z,992.27
2017-11-12T12:12:09.605Z,992.37
2017-11-12T12:13:09.567Z,992.27
2017-11-12T12:14:09.529Z,992.31
2017-11-12T12:15:09.491Z,992.31
2017-11-12T12:16:09.453Z,992.26
2017-11-12T12:17:09.413Z,992.29
2017-11-12T12:18:09.377Z,992.30
2017-11-12T12:19:09.340Z,992.19
2017-11-12T12:20:09.301Z,992.29
2017-11-12T12:21:09.341Z,992.23
2017-11-12T12:22:09.226Z,992.24
2017-11-12T12:23:09.189Z,992.20
2017-11-12T12:24:09.150Z,992.11
2017-11-12T12:25:09.115Z,992.18